DHK125 KMIA-CYUL
Flight info
| Callsign | DHK125 |
|---|---|
| Flight time | 2h 59m |
| Altitude | 34000 |
| Route | FOLZZ3 ALYRA DCT GRUBR/N0479F350 Y299 SEELO DCT WAALT Q131 EARZZ DCT JAMIE Q133 PBERG CARTR5 |
| Aircraft | B77L/H-SDE1E2E3FGHIJ2J3J4J5M1RWXY/LB1D1 |
Departure
| Time | 2026-05-06 09:51 |
|---|---|
| Airport | Miami International Airport (KMIA) |
Arrival
| Time | 2026-05-06 12:50 |
|---|---|
| Airport | Montreal / Pierre Elliott Trudeau International Airport (CYUL) |
| Time | Latitude | Longitude | Altitude | Speed | Heading |
|---|---|---|---|---|---|
| 2026-05-06 09:35 | 25.79121 | -80.29167 | 19 ft | 0 kts | 209° |
| 2026-05-06 09:41 | 25.79127 | -80.29164 | 19 ft | 4 kts | 209° |
| 2026-05-06 09:41 | 25.79151 | -80.29149 | 22 ft | 3 kts | 209° |
| 2026-05-06 09:41 | 25.79167 | -80.29137 | 24 ft | 4 kts | 246° |
| 2026-05-06 09:42 | 25.79165 | -80.29115 | 23 ft | 3 kts | 299° |
| 2026-05-06 09:42 | 25.79153 | -80.29090 | 24 ft | 2 kts | 299° |
| 2026-05-06 09:42 | 25.79151 | -80.29088 | 19 ft | 0 kts | 299° |
| 2026-05-06 09:45 | 25.79153 | -80.29091 | 19 ft | 0 kts | 299° |
| 2026-05-06 09:45 | 25.79192 | -80.29164 | 19 ft | 17 kts | 304° |
| 2026-05-06 09:46 | 25.79254 | -80.29274 | 19 ft | 17 kts | 299° |
| 2026-05-06 09:46 | 25.79313 | -80.29387 | 19 ft | 17 kts | 302° |
| 2026-05-06 09:46 | 25.79377 | -80.29505 | 22 ft | 19 kts | 296° |
| 2026-05-06 09:46 | 25.79441 | -80.29635 | 20 ft | 19 kts | 303° |
| 2026-05-06 09:47 | 25.79510 | -80.29762 | 20 ft | 19 kts | 300° |
| 2026-05-06 09:47 | 25.79577 | -80.29891 | 19 ft | 19 kts | 300° |
| 2026-05-06 09:47 | 25.79642 | -80.30020 | 19 ft | 19 kts | 299° |
| 2026-05-06 09:47 | 25.79707 | -80.30148 | 19 ft | 19 kts | 300° |
| 2026-05-06 09:48 | 25.79767 | -80.30264 | 19 ft | 13 kts | 304° |
| 2026-05-06 09:48 | 25.79831 | -80.30273 | 19 ft | 10 kts | 28° |
| 2026-05-06 09:48 | 25.79892 | -80.30235 | 19 ft | 10 kts | 30° |
| 2026-05-06 09:48 | 25.79947 | -80.30193 | 19 ft | 9 kts | 53° |
| 2026-05-06 09:49 | 25.79962 | -80.30125 | 19 ft | 8 kts | 75° |
| 2026-05-06 09:49 | 25.79968 | -80.30117 | 19 ft | 0 kts | 46° |
| 2026-05-06 09:49 | 25.79972 | -80.30114 | 20 ft | 4 kts | 37° |
| 2026-05-06 09:49 | 25.80036 | -80.30125 | 19 ft | 11 kts | 347° |
| 2026-05-06 09:50 | 25.80070 | -80.30092 | 18 ft | 7 kts | 75° |
| 2026-05-06 09:50 | 25.80072 | -80.30078 | 18 ft | 0 kts | 82° |
| 2026-05-06 09:50 | 25.80078 | -80.29967 | 17 ft | 45 kts | 87° |
| 2026-05-06 09:51 | 25.80104 | -80.29336 | 20 ft | 116 kts | 87° |
| 2026-05-06 09:51 | 25.80150 | -80.28216 | 19 ft | 171 kts | 87° |
| 2026-05-06 09:51 | 25.80214 | -80.26788 | 318 ft | 188 kts | 83° |
| 2026-05-06 09:51 | 25.80704 | -80.25453 | 805 ft | 193 kts | 45° |
| 2026-05-06 09:52 | 25.81873 | -80.24786 | 1442 ft | 190 kts | 17° |
| 2026-05-06 09:52 | 25.83170 | -80.24407 | 2004 ft | 200 kts | 17° |
| 2026-05-06 09:52 | 25.84580 | -80.23915 | 2310 ft | 221 kts | 19° |
| 2026-05-06 09:52 | 25.86107 | -80.23322 | 2587 ft | 247 kts | 20° |
| 2026-05-06 09:53 | 25.87780 | -80.22649 | 3112 ft | 261 kts | 21° |
| 2026-05-06 09:53 | 25.89496 | -80.21926 | 3892 ft | 266 kts | 22° |
| 2026-05-06 09:53 | 25.91231 | -80.21160 | 4715 ft | 271 kts | 22° |
| 2026-05-06 09:53 | 25.92989 | -80.20355 | 5495 ft | 275 kts | 22° |
| 2026-05-06 09:54 | 25.94747 | -80.19527 | 6391 ft | 274 kts | 22° |
| 2026-05-06 09:54 | 25.96506 | -80.18682 | 7166 ft | 277 kts | 22° |
| 2026-05-06 09:54 | 25.98278 | -80.17817 | 7933 ft | 279 kts | 22° |
| 2026-05-06 09:54 | 26.00037 | -80.16950 | 8717 ft | 281 kts | 22° |
| 2026-05-06 09:55 | 26.01853 | -80.16047 | 9472 ft | 284 kts | 22° |
| 2026-05-06 09:55 | 26.03675 | -80.15137 | 10026 ft | 289 kts | 22° |
| 2026-05-06 09:55 | 26.05545 | -80.14200 | 10436 ft | 305 kts | 22° |
| 2026-05-06 09:55 | 26.07563 | -80.13188 | 10605 ft | 330 kts | 22° |
| 2026-05-06 09:56 | 26.09702 | -80.12112 | 10797 ft | 354 kts | 22° |
| 2026-05-06 09:56 | 26.11998 | -80.10952 | 11207 ft | 369 kts | 22° |
| 2026-05-06 09:56 | 26.14362 | -80.09754 | 11859 ft | 377 kts | 22° |
| 2026-05-06 09:56 | 26.16764 | -80.08533 | 12695 ft | 381 kts | 22° |
| 2026-05-06 09:57 | 26.19183 | -80.07302 | 13586 ft | 384 kts | 22° |
| 2026-05-06 09:57 | 26.21625 | -80.06060 | 14352 ft | 388 kts | 22° |
| 2026-05-06 09:57 | 26.24097 | -80.04801 | 15064 ft | 393 kts | 22° |
| 2026-05-06 09:57 | 26.26593 | -80.03531 | 15795 ft | 397 kts | 22° |
| 2026-05-06 09:58 | 26.29117 | -80.02246 | 16536 ft | 400 kts | 22° |
| 2026-05-06 09:58 | 26.31657 | -80.00953 | 17280 ft | 404 kts | 22° |
| 2026-05-06 09:58 | 26.34225 | -79.99644 | 17992 ft | 408 kts | 21° |
| 2026-05-06 09:58 | 26.36814 | -79.98325 | 18640 ft | 412 kts | 21° |
| 2026-05-06 09:59 | 26.39432 | -79.96990 | 19234 ft | 415 kts | 21° |
| 2026-05-06 09:59 | 26.42071 | -79.95644 | 19807 ft | 419 kts | 21° |
| 2026-05-06 09:59 | 26.44736 | -79.94284 | 20380 ft | 423 kts | 21° |
| 2026-05-06 09:59 | 26.47424 | -79.92911 | 20945 ft | 427 kts | 21° |
| 2026-05-06 10:00 | 26.50136 | -79.91526 | 21497 ft | 430 kts | 21° |
| 2026-05-06 10:00 | 26.52871 | -79.90128 | 22056 ft | 434 kts | 21° |
| 2026-05-06 10:00 | 26.55629 | -79.88717 | 22594 ft | 438 kts | 21° |
| 2026-05-06 10:00 | 26.58409 | -79.87294 | 23113 ft | 442 kts | 21° |
| 2026-05-06 10:01 | 26.61217 | -79.85857 | 23627 ft | 445 kts | 21° |
| 2026-05-06 10:01 | 26.64046 | -79.84408 | 24055 ft | 449 kts | 20° |
| 2026-05-06 10:01 | 26.66892 | -79.82948 | 24497 ft | 451 kts | 20° |
| 2026-05-06 10:01 | 26.69754 | -79.81480 | 24951 ft | 454 kts | 20° |
| 2026-05-06 10:02 | 26.72629 | -79.80004 | 25394 ft | 456 kts | 20° |
| 2026-05-06 10:02 | 26.75526 | -79.78517 | 25809 ft | 460 kts | 20° |
| 2026-05-06 10:02 | 26.78450 | -79.77015 | 26187 ft | 464 kts | 20° |
| 2026-05-06 10:02 | 26.81396 | -79.75501 | 26629 ft | 467 kts | 20° |
| 2026-05-06 10:03 | 26.84355 | -79.73979 | 27093 ft | 469 kts | 20° |
| 2026-05-06 10:03 | 26.87329 | -79.72448 | 27550 ft | 472 kts | 20° |
| 2026-05-06 10:03 | 26.90318 | -79.70909 | 28005 ft | 474 kts | 20° |
| 2026-05-06 10:03 | 26.93320 | -79.69362 | 28443 ft | 476 kts | 20° |
| 2026-05-06 10:04 | 26.96338 | -79.67806 | 28870 ft | 479 kts | 20° |
| 2026-05-06 10:04 | 26.99373 | -79.66241 | 29271 ft | 482 kts | 20° |
| 2026-05-06 10:04 | 27.02429 | -79.64664 | 29672 ft | 484 kts | 20° |
| 2026-05-06 10:04 | 27.05494 | -79.63080 | 30124 ft | 485 kts | 20° |
| 2026-05-06 10:05 | 27.08551 | -79.61498 | 30625 ft | 483 kts | 20° |
| 2026-05-06 10:05 | 27.11589 | -79.59924 | 31262 ft | 478 kts | 19° |
| 2026-05-06 10:05 | 27.14591 | -79.58367 | 31866 ft | 474 kts | 19° |
| 2026-05-06 10:05 | 27.17580 | -79.56818 | 32400 ft | 471 kts | 19° |
| 2026-05-06 10:06 | 27.20512 | -79.55299 | 32875 ft | 470 kts | 19° |
| 2026-05-06 10:06 | 27.23480 | -79.53762 | 33327 ft | 469 kts | 19° |
| 2026-05-06 10:06 | 27.26436 | -79.52230 | 33800 ft | 467 kts | 19° |
| 2026-05-06 10:06 | 27.29393 | -79.50697 | 34100 ft | 470 kts | 19° |
| 2026-05-06 10:07 | 27.35349 | -79.47608 | 34062 ft | 470 kts | 19° |
| 2026-05-06 10:07 | 27.41241 | -79.44540 | 34058 ft | 464 kts | 19° |
| 2026-05-06 10:08 | 27.47098 | -79.41491 | 34078 ft | 463 kts | 19° |
| 2026-05-06 10:08 | 27.52944 | -79.38445 | 34073 ft | 463 kts | 19° |
| 2026-05-06 10:09 | 27.58787 | -79.35397 | 34071 ft | 462 kts | 19° |
| 2026-05-06 10:09 | 27.64626 | -79.32347 | 34072 ft | 463 kts | 19° |
| 2026-05-06 10:10 | 27.70470 | -79.29290 | 34079 ft | 463 kts | 19° |
| 2026-05-06 10:10 | 27.76321 | -79.26226 | 34071 ft | 463 kts | 19° |
| 2026-05-06 10:11 | 27.82170 | -79.23159 | 34070 ft | 462 kts | 19° |
| 2026-05-06 10:11 | 27.87900 | -79.20143 | 34065 ft | 451 kts | 19° |
| 2026-05-06 10:12 | 27.93565 | -79.17166 | 34064 ft | 447 kts | 18° |
| 2026-05-06 10:12 | 27.99190 | -79.14209 | 34066 ft | 445 kts | 18° |
| 2026-05-06 10:13 | 28.04785 | -79.11263 | 34069 ft | 442 kts | 18° |
| 2026-05-06 10:13 | 28.10376 | -79.08318 | 34096 ft | 449 kts | 18° |
| 2026-05-06 10:14 | 28.16161 | -79.05277 | 34101 ft | 467 kts | 18° |
| 2026-05-06 10:14 | 28.22041 | -79.02164 | 34069 ft | 463 kts | 18° |
| 2026-05-06 10:15 | 28.27826 | -78.99089 | 34076 ft | 457 kts | 18° |
| 2026-05-06 10:15 | 28.33586 | -78.96036 | 34078 ft | 456 kts | 18° |
| 2026-05-06 10:16 | 28.39338 | -78.92987 | 34079 ft | 456 kts | 18° |
| 2026-05-06 10:16 | 28.45096 | -78.89931 | 34080 ft | 457 kts | 18° |
| 2026-05-06 10:17 | 28.50876 | -78.86858 | 34099 ft | 459 kts | 18° |
| 2026-05-06 10:17 | 28.56666 | -78.83774 | 34090 ft | 460 kts | 18° |
| 2026-05-06 10:18 | 28.62471 | -78.80679 | 34080 ft | 461 kts | 18° |
| 2026-05-06 10:18 | 28.68278 | -78.77579 | 34079 ft | 461 kts | 18° |
| 2026-05-06 10:19 | 28.74088 | -78.74473 | 34082 ft | 461 kts | 18° |
| 2026-05-06 10:19 | 28.79893 | -78.71366 | 34094 ft | 461 kts | 18° |
| 2026-05-06 10:20 | 28.85695 | -78.68257 | 34092 ft | 460 kts | 18° |
| 2026-05-06 10:20 | 28.91504 | -78.65143 | 34266 ft | 463 kts | 18° |
| 2026-05-06 10:21 | 28.94412 | -78.63581 | 34680 ft | 460 kts | 18° |
| 2026-05-06 10:21 | 28.97298 | -78.62028 | 35079 ft | 458 kts | 17° |
| 2026-05-06 10:21 | 29.03084 | -78.58916 | 35079 ft | 457 kts | 17° |
| 2026-05-06 10:22 | 29.08799 | -78.55836 | 35083 ft | 453 kts | 17° |
| 2026-05-06 10:22 | 29.14504 | -78.52763 | 35090 ft | 454 kts | 17° |
| 2026-05-06 10:23 | 29.20224 | -78.49678 | 35088 ft | 455 kts | 17° |
| 2026-05-06 10:23 | 29.25947 | -78.46585 | 35089 ft | 455 kts | 17° |
| 2026-05-06 10:24 | 29.31641 | -78.43503 | 35088 ft | 456 kts | 17° |
| 2026-05-06 10:24 | 29.37419 | -78.40371 | 35096 ft | 457 kts | 17° |
| 2026-05-06 10:25 | 29.43125 | -78.37276 | 35089 ft | 457 kts | 17° |
| 2026-05-06 10:25 | 29.46045 | -78.35995 | 35085 ft | 443 kts | 6° |
| 2026-05-06 10:25 | 29.49049 | -78.35503 | 35097 ft | 432 kts | 356° |
| 2026-05-06 10:26 | 29.54952 | -78.36207 | 35094 ft | 424 kts | 340° |
| 2026-05-06 10:26 | 29.60638 | -78.38128 | 35114 ft | 428 kts | 339° |
| 2026-05-06 10:27 | 29.66380 | -78.40046 | 35095 ft | 431 kts | 340° |
| 2026-05-06 10:27 | 29.72141 | -78.41933 | 35082 ft | 430 kts | 340° |
| 2026-05-06 10:28 | 29.77880 | -78.43800 | 35083 ft | 427 kts | 340° |
| 2026-05-06 10:28 | 29.83584 | -78.45656 | 35085 ft | 424 kts | 340° |
| 2026-05-06 10:29 | 29.88334 | -78.47205 | 35086 ft | 423 kts | 340° |
| 2026-05-06 10:29 | 29.93982 | -78.49049 | 35096 ft | 421 kts | 340° |
| 2026-05-06 10:30 | 29.99609 | -78.50889 | 35092 ft | 420 kts | 340° |
| 2026-05-06 10:30 | 30.05188 | -78.52716 | 35093 ft | 419 kts | 340° |
| 2026-05-06 10:31 | 30.10818 | -78.54504 | 35093 ft | 422 kts | 343° |
| 2026-05-06 10:31 | 30.16746 | -78.55232 | 35101 ft | 429 kts | 352° |
| 2026-05-06 10:32 | 30.22771 | -78.54872 | 35096 ft | 438 kts | 0° |
| 2026-05-06 10:32 | 30.28783 | -78.53944 | 35093 ft | 439 kts | 0° |
| 2026-05-06 10:33 | 30.34843 | -78.53032 | 35093 ft | 439 kts | 0° |
| 2026-05-06 10:33 | 30.40905 | -78.52157 | 35092 ft | 439 kts | 0° |
| 2026-05-06 10:34 | 30.46968 | -78.51232 | 35096 ft | 440 kts | 0° |
| 2026-05-06 10:34 | 30.53023 | -78.50240 | 35091 ft | 439 kts | 0° |
| 2026-05-06 10:35 | 30.59074 | -78.49247 | 35093 ft | 439 kts | 0° |
| 2026-05-06 10:35 | 30.65119 | -78.48263 | 35092 ft | 438 kts | 0° |
| 2026-05-06 10:36 | 30.71154 | -78.47284 | 35091 ft | 438 kts | 0° |
| 2026-05-06 10:36 | 30.77183 | -78.46305 | 35101 ft | 438 kts | 0° |
| 2026-05-06 10:37 | 30.83215 | -78.45325 | 35094 ft | 438 kts | 0° |
| 2026-05-06 10:37 | 30.89245 | -78.44344 | 35092 ft | 437 kts | 0° |
| 2026-05-06 10:38 | 30.95270 | -78.43361 | 35095 ft | 437 kts | 0° |
| 2026-05-06 10:38 | 31.01297 | -78.42378 | 35110 ft | 437 kts | 360° |
| 2026-05-06 10:39 | 31.07322 | -78.41393 | 35092 ft | 437 kts | 360° |
| 2026-05-06 10:39 | 31.13349 | -78.40407 | 35093 ft | 437 kts | 360° |
| 2026-05-06 10:40 | 31.19334 | -78.39426 | 35095 ft | 437 kts | 360° |
| 2026-05-06 10:40 | 31.25358 | -78.38438 | 35095 ft | 437 kts | 360° |
| 2026-05-06 10:41 | 31.31382 | -78.37448 | 35101 ft | 437 kts | 359° |
| 2026-05-06 10:41 | 31.37408 | -78.36457 | 35092 ft | 437 kts | 359° |
| 2026-05-06 10:42 | 31.43433 | -78.35465 | 35095 ft | 437 kts | 359° |
| 2026-05-06 10:42 | 31.49459 | -78.34471 | 35095 ft | 437 kts | 359° |
| 2026-05-06 10:43 | 31.55482 | -78.33477 | 35115 ft | 437 kts | 359° |
| 2026-05-06 10:44 | 31.64525 | -78.31982 | 35098 ft | 438 kts | 359° |
| 2026-05-06 10:44 | 31.70558 | -78.30982 | 35093 ft | 438 kts | 359° |
| 2026-05-06 10:45 | 31.76591 | -78.29981 | 35096 ft | 438 kts | 359° |
| 2026-05-06 10:45 | 31.82624 | -78.28979 | 35105 ft | 438 kts | 359° |
| 2026-05-06 10:46 | 31.88662 | -78.27974 | 35095 ft | 438 kts | 359° |
| 2026-05-06 10:46 | 31.94708 | -78.26967 | 35095 ft | 439 kts | 359° |
| 2026-05-06 10:47 | 32.00709 | -78.25966 | 35096 ft | 439 kts | 359° |
| 2026-05-06 10:47 | 32.06752 | -78.24842 | 35098 ft | 441 kts | 1° |
| 2026-05-06 10:48 | 32.12809 | -78.23504 | 35102 ft | 443 kts | 1° |
| 2026-05-06 10:48 | 32.18865 | -78.22153 | 35097 ft | 443 kts | 1° |
| 2026-05-06 10:49 | 32.24928 | -78.20827 | 35098 ft | 443 kts | 1° |
| 2026-05-06 10:49 | 32.30995 | -78.19513 | 35097 ft | 443 kts | 1° |
| 2026-05-06 10:50 | 32.37067 | -78.18200 | 35096 ft | 444 kts | 1° |
| 2026-05-06 10:50 | 32.43142 | -78.16883 | 35086 ft | 444 kts | 1° |
| 2026-05-06 10:51 | 32.49215 | -78.15565 | 35094 ft | 444 kts | 1° |
| 2026-05-06 10:51 | 32.55289 | -78.14245 | 35093 ft | 444 kts | 1° |
| 2026-05-06 10:52 | 32.61360 | -78.12923 | 35111 ft | 443 kts | 1° |
| 2026-05-06 10:52 | 32.67425 | -78.11601 | 35101 ft | 443 kts | 1° |
| 2026-05-06 10:53 | 32.73485 | -78.10278 | 35093 ft | 442 kts | 1° |
| 2026-05-06 10:53 | 32.79535 | -78.08955 | 35095 ft | 442 kts | 1° |
| 2026-05-06 10:54 | 32.85575 | -78.07633 | 35090 ft | 441 kts | 1° |
| 2026-05-06 10:54 | 32.91611 | -78.06310 | 35090 ft | 441 kts | 1° |
| 2026-05-06 10:55 | 32.97641 | -78.04987 | 35088 ft | 441 kts | 1° |
| 2026-05-06 10:55 | 33.03676 | -78.03661 | 35087 ft | 441 kts | 1° |
| 2026-05-06 10:56 | 33.09711 | -78.02333 | 35089 ft | 441 kts | 1° |
| 2026-05-06 10:56 | 33.15748 | -78.01001 | 35096 ft | 441 kts | 0° |
| 2026-05-06 10:57 | 33.21773 | -77.99671 | 35084 ft | 440 kts | 0° |
| 2026-05-06 10:57 | 33.27783 | -77.98342 | 35083 ft | 438 kts | 0° |
| 2026-05-06 10:58 | 33.33771 | -77.97016 | 35083 ft | 437 kts | 0° |
| 2026-05-06 10:58 | 33.39753 | -77.95690 | 35097 ft | 437 kts | 0° |
| 2026-05-06 10:59 | 33.45724 | -77.94365 | 35086 ft | 436 kts | 1° |
| 2026-05-06 10:59 | 33.51687 | -77.93040 | 35086 ft | 436 kts | 1° |
| 2026-05-06 11:00 | 33.57643 | -77.91715 | 35085 ft | 435 kts | 1° |
| 2026-05-06 11:00 | 33.63555 | -77.90397 | 35109 ft | 435 kts | 1° |
| 2026-05-06 11:01 | 33.69519 | -77.89066 | 35087 ft | 436 kts | 1° |
| 2026-05-06 11:01 | 33.75481 | -77.87733 | 35081 ft | 436 kts | 1° |
| 2026-05-06 11:02 | 33.81449 | -77.86375 | 35085 ft | 437 kts | 1° |
| 2026-05-06 11:02 | 33.87408 | -77.84876 | 35112 ft | 438 kts | 2° |
| 2026-05-06 11:03 | 33.93373 | -77.83348 | 35089 ft | 438 kts | 2° |
| 2026-05-06 11:03 | 33.99337 | -77.81831 | 35080 ft | 438 kts | 2° |
| 2026-05-06 11:04 | 34.05294 | -77.80324 | 35079 ft | 437 kts | 2° |
| 2026-05-06 11:04 | 34.11243 | -77.78819 | 35078 ft | 437 kts | 2° |
| 2026-05-06 11:05 | 34.17191 | -77.77313 | 35081 ft | 437 kts | 2° |
| 2026-05-06 11:05 | 34.23131 | -77.75806 | 35073 ft | 436 kts | 2° |
| 2026-05-06 11:06 | 34.29066 | -77.74298 | 35074 ft | 436 kts | 2° |
| 2026-05-06 11:06 | 34.34999 | -77.72788 | 35073 ft | 435 kts | 2° |
| 2026-05-06 11:07 | 34.40926 | -77.71278 | 35076 ft | 436 kts | 2° |
| 2026-05-06 11:07 | 34.46859 | -77.69764 | 35079 ft | 436 kts | 2° |
| 2026-05-06 11:08 | 34.52795 | -77.68238 | 35078 ft | 437 kts | 3° |
| 2026-05-06 11:08 | 34.58660 | -77.65916 | 35083 ft | 451 kts | 12° |
| 2026-05-06 11:09 | 34.64358 | -77.62569 | 35102 ft | 457 kts | 15° |
| 2026-05-06 11:09 | 34.70051 | -77.59123 | 35065 ft | 457 kts | 15° |
| 2026-05-06 11:10 | 34.75742 | -77.55694 | 35079 ft | 456 kts | 16° |
| 2026-05-06 11:10 | 34.81428 | -77.52284 | 35085 ft | 455 kts | 16° |
| 2026-05-06 11:11 | 34.87073 | -77.48903 | 35107 ft | 455 kts | 15° |
| 2026-05-06 11:11 | 34.92767 | -77.45488 | 35087 ft | 456 kts | 15° |
| 2026-05-06 11:12 | 34.98465 | -77.42063 | 35081 ft | 457 kts | 15° |
| 2026-05-06 11:12 | 35.04169 | -77.38629 | 35074 ft | 457 kts | 15° |
| 2026-05-06 11:13 | 35.09880 | -77.35184 | 35099 ft | 458 kts | 15° |
| 2026-05-06 11:13 | 35.15595 | -77.31733 | 35084 ft | 459 kts | 15° |
| 2026-05-06 11:14 | 35.21325 | -77.28266 | 35070 ft | 460 kts | 15° |
| 2026-05-06 11:14 | 35.27065 | -77.24789 | 35068 ft | 460 kts | 15° |
| 2026-05-06 11:15 | 35.32787 | -77.21315 | 35067 ft | 461 kts | 16° |
| 2026-05-06 11:15 | 35.37554 | -77.18417 | 35073 ft | 460 kts | 16° |
| 2026-05-06 11:16 | 35.43289 | -77.14925 | 35077 ft | 460 kts | 16° |
| 2026-05-06 11:16 | 35.49016 | -77.11434 | 35082 ft | 459 kts | 16° |
| 2026-05-06 11:17 | 35.54734 | -77.07942 | 35087 ft | 459 kts | 16° |
| 2026-05-06 11:17 | 35.60460 | -77.04441 | 35090 ft | 460 kts | 16° |
| 2026-05-06 11:18 | 35.66193 | -77.00929 | 35086 ft | 461 kts | 16° |
| 2026-05-06 11:18 | 35.71933 | -76.97407 | 35078 ft | 461 kts | 16° |
| 2026-05-06 11:19 | 35.77676 | -76.93876 | 35068 ft | 462 kts | 16° |
| 2026-05-06 11:19 | 35.83427 | -76.90335 | 35070 ft | 463 kts | 16° |
| 2026-05-06 11:20 | 35.89193 | -76.86780 | 35067 ft | 463 kts | 16° |
| 2026-05-06 11:20 | 35.95015 | -76.83501 | 35066 ft | 458 kts | 13° |
| 2026-05-06 11:21 | 36.00896 | -76.80504 | 35067 ft | 457 kts | 12° |
| 2026-05-06 11:21 | 36.06783 | -76.77514 | 35075 ft | 458 kts | 12° |
| 2026-05-06 11:22 | 36.12675 | -76.74490 | 35070 ft | 459 kts | 13° |
| 2026-05-06 11:22 | 36.18569 | -76.71442 | 35070 ft | 459 kts | 13° |
| 2026-05-06 11:23 | 36.24468 | -76.68383 | 35076 ft | 460 kts | 13° |
| 2026-05-06 11:23 | 36.30372 | -76.65318 | 35055 ft | 461 kts | 13° |
| 2026-05-06 11:24 | 36.36286 | -76.62244 | 35052 ft | 461 kts | 13° |
| 2026-05-06 11:24 | 36.42205 | -76.59162 | 35047 ft | 462 kts | 13° |
| 2026-05-06 11:25 | 36.48129 | -76.56071 | 35071 ft | 462 kts | 13° |
| 2026-05-06 11:25 | 36.54067 | -76.52970 | 35052 ft | 463 kts | 13° |
| 2026-05-06 11:26 | 36.60019 | -76.49855 | 35058 ft | 464 kts | 13° |
| 2026-05-06 11:26 | 36.65970 | -76.46734 | 35065 ft | 464 kts | 13° |
| 2026-05-06 11:27 | 36.71878 | -76.43631 | 35061 ft | 464 kts | 13° |
| 2026-05-06 11:27 | 36.77830 | -76.40501 | 35052 ft | 464 kts | 13° |
| 2026-05-06 11:28 | 36.83781 | -76.37365 | 35042 ft | 464 kts | 13° |
| 2026-05-06 11:28 | 36.89735 | -76.34223 | 35038 ft | 464 kts | 13° |
| 2026-05-06 11:29 | 36.95685 | -76.31077 | 35043 ft | 465 kts | 13° |
| 2026-05-06 11:29 | 37.01649 | -76.27920 | 35037 ft | 466 kts | 13° |
| 2026-05-06 11:30 | 37.07616 | -76.24754 | 35017 ft | 466 kts | 13° |
| 2026-05-06 11:30 | 37.13587 | -76.21580 | 35021 ft | 466 kts | 13° |
| 2026-05-06 11:31 | 37.19566 | -76.18398 | 35029 ft | 467 kts | 13° |
| 2026-05-06 11:31 | 37.25557 | -76.15204 | 35023 ft | 468 kts | 13° |
| 2026-05-06 11:32 | 37.31552 | -76.12001 | 35022 ft | 468 kts | 14° |
| 2026-05-06 11:32 | 37.37549 | -76.08791 | 35044 ft | 468 kts | 14° |
| 2026-05-06 11:33 | 37.43549 | -76.05575 | 35024 ft | 469 kts | 14° |
| 2026-05-06 11:33 | 37.49553 | -76.02350 | 35014 ft | 469 kts | 14° |
| 2026-05-06 11:34 | 37.55562 | -75.99117 | 35011 ft | 470 kts | 14° |
| 2026-05-06 11:34 | 37.61523 | -75.95667 | 35003 ft | 477 kts | 20° |
| 2026-05-06 11:35 | 37.67166 | -75.91105 | 35018 ft | 483 kts | 25° |
| 2026-05-06 11:35 | 37.72752 | -75.86382 | 35018 ft | 483 kts | 25° |
| 2026-05-06 11:36 | 37.78350 | -75.81688 | 35017 ft | 483 kts | 24° |
| 2026-05-06 11:36 | 37.83967 | -75.77008 | 35014 ft | 484 kts | 24° |
| 2026-05-06 11:37 | 37.89549 | -75.72358 | 35010 ft | 484 kts | 24° |
| 2026-05-06 11:37 | 37.95167 | -75.67666 | 35013 ft | 484 kts | 25° |
| 2026-05-06 11:38 | 38.00787 | -75.62963 | 35025 ft | 484 kts | 24° |
| 2026-05-06 11:38 | 38.06414 | -75.58243 | 35000 ft | 485 kts | 24° |
| 2026-05-06 11:39 | 38.12046 | -75.53512 | 34997 ft | 486 kts | 24° |
| 2026-05-06 11:39 | 38.17690 | -75.48760 | 34994 ft | 487 kts | 24° |
| 2026-05-06 11:40 | 38.23349 | -75.44029 | 35001 ft | 484 kts | 21° |
| 2026-05-06 11:40 | 38.29380 | -75.40643 | 35001 ft | 467 kts | 8° |
| 2026-05-06 11:41 | 38.35638 | -75.38955 | 35001 ft | 456 kts | 0° |
| 2026-05-06 11:41 | 38.41920 | -75.37716 | 34991 ft | 457 kts | 0° |
| 2026-05-06 11:42 | 38.48217 | -75.36429 | 34994 ft | 459 kts | 0° |
| 2026-05-06 11:42 | 38.54533 | -75.35098 | 34990 ft | 460 kts | 0° |
| 2026-05-06 11:43 | 38.60858 | -75.33754 | 34975 ft | 461 kts | 0° |
| 2026-05-06 11:43 | 38.67185 | -75.32410 | 34985 ft | 461 kts | 0° |
| 2026-05-06 11:44 | 38.76671 | -75.29849 | 34976 ft | 474 kts | 9° |
| 2026-05-06 11:44 | 38.82793 | -75.26425 | 34976 ft | 487 kts | 19° |
| 2026-05-06 11:45 | 38.88723 | -75.22160 | 34979 ft | 490 kts | 20° |
| 2026-05-06 11:45 | 38.94655 | -75.17848 | 34954 ft | 490 kts | 20° |
| 2026-05-06 11:46 | 39.00613 | -75.13572 | 34948 ft | 490 kts | 19° |
| 2026-05-06 11:46 | 39.06580 | -75.09310 | 34949 ft | 491 kts | 19° |
| 2026-05-06 11:47 | 39.12558 | -75.05033 | 34950 ft | 492 kts | 20° |
| 2026-05-06 11:47 | 39.18529 | -75.00747 | 34949 ft | 491 kts | 20° |
| 2026-05-06 11:48 | 39.24454 | -74.96488 | 34965 ft | 491 kts | 20° |
| 2026-05-06 11:48 | 39.30245 | -74.91688 | 34963 ft | 499 kts | 26° |
| 2026-05-06 11:49 | 39.35899 | -74.86471 | 34947 ft | 500 kts | 26° |
| 2026-05-06 11:49 | 39.41555 | -74.81242 | 34953 ft | 500 kts | 26° |
| 2026-05-06 11:50 | 39.47225 | -74.76038 | 34982 ft | 500 kts | 26° |
| 2026-05-06 11:50 | 39.52912 | -74.70832 | 34962 ft | 501 kts | 26° |
| 2026-05-06 11:51 | 39.58605 | -74.65611 | 34956 ft | 501 kts | 26° |
| 2026-05-06 11:51 | 39.64294 | -74.60379 | 34956 ft | 502 kts | 26° |
| 2026-05-06 11:52 | 39.69985 | -74.55133 | 34949 ft | 502 kts | 26° |
| 2026-05-06 11:52 | 39.75677 | -74.49874 | 34948 ft | 502 kts | 26° |
| 2026-05-06 11:53 | 39.81369 | -74.44606 | 34949 ft | 502 kts | 26° |
| 2026-05-06 11:53 | 39.87056 | -74.39330 | 34992 ft | 503 kts | 26° |
| 2026-05-06 11:54 | 39.92751 | -74.34037 | 34937 ft | 503 kts | 27° |
| 2026-05-06 11:54 | 39.98439 | -74.28737 | 34949 ft | 502 kts | 27° |
| 2026-05-06 11:55 | 40.04115 | -74.23439 | 34929 ft | 502 kts | 27° |
| 2026-05-06 11:55 | 40.09794 | -74.18131 | 34943 ft | 502 kts | 26° |
| 2026-05-06 11:56 | 40.15469 | -74.12815 | 34945 ft | 502 kts | 27° |
| 2026-05-06 11:56 | 40.21146 | -74.07485 | 34943 ft | 502 kts | 27° |
| 2026-05-06 11:57 | 40.26825 | -74.02142 | 34928 ft | 503 kts | 27° |
| 2026-05-06 11:57 | 40.32509 | -73.96792 | 34920 ft | 502 kts | 26° |
| 2026-05-06 11:58 | 40.38465 | -73.92299 | 34931 ft | 488 kts | 15° |
| 2026-05-06 11:58 | 40.44632 | -73.88604 | 34958 ft | 488 kts | 15° |
| 2026-05-06 11:59 | 40.50767 | -73.84876 | 34938 ft | 490 kts | 16° |
| 2026-05-06 11:59 | 40.56946 | -73.81047 | 34936 ft | 492 kts | 16° |
| 2026-05-06 12:00 | 40.63168 | -73.77402 | 34964 ft | 485 kts | 10° |
| 2026-05-06 12:00 | 40.69591 | -73.75148 | 34942 ft | 474 kts | 2° |
| 2026-05-06 12:01 | 40.76047 | -73.73362 | 34912 ft | 475 kts | 2° |
| 2026-05-06 12:01 | 40.82518 | -73.71532 | 34935 ft | 476 kts | 2° |
| 2026-05-06 12:02 | 40.87947 | -73.69961 | 34908 ft | 477 kts | 3° |
| 2026-05-06 12:02 | 40.94392 | -73.68079 | 34909 ft | 478 kts | 3° |
| 2026-05-06 12:03 | 41.00883 | -73.66181 | 34908 ft | 478 kts | 3° |
| 2026-05-06 12:03 | 41.07383 | -73.64278 | 34908 ft | 479 kts | 3° |
| 2026-05-06 12:04 | 41.13887 | -73.62371 | 34907 ft | 479 kts | 3° |
| 2026-05-06 12:04 | 41.20385 | -73.60461 | 34900 ft | 478 kts | 3° |
| 2026-05-06 12:05 | 41.26884 | -73.58550 | 34917 ft | 479 kts | 3° |
| 2026-05-06 12:05 | 41.33401 | -73.57299 | 34920 ft | 470 kts | 356° |
| 2026-05-06 12:06 | 41.39925 | -73.56476 | 34904 ft | 471 kts | 356° |
| 2026-05-06 12:06 | 41.46464 | -73.55648 | 34909 ft | 473 kts | 356° |
| 2026-05-06 12:07 | 41.53033 | -73.54775 | 34864 ft | 475 kts | 356° |
| 2026-05-06 12:07 | 41.59611 | -73.53877 | 34862 ft | 476 kts | 356° |
| 2026-05-06 12:08 | 41.66201 | -73.52975 | 34846 ft | 476 kts | 356° |
| 2026-05-06 12:08 | 41.72793 | -73.52072 | 34849 ft | 477 kts | 356° |
| 2026-05-06 12:09 | 41.79398 | -73.51167 | 34844 ft | 477 kts | 356° |
| 2026-05-06 12:09 | 41.85968 | -73.50267 | 34848 ft | 479 kts | 356° |
| 2026-05-06 12:10 | 41.92601 | -73.49356 | 34841 ft | 480 kts | 356° |
| 2026-05-06 12:10 | 41.99252 | -73.48440 | 34817 ft | 481 kts | 356° |
| 2026-05-06 12:11 | 42.05912 | -73.47520 | 34830 ft | 482 kts | 356° |
| 2026-05-06 12:11 | 42.12595 | -73.46595 | 34817 ft | 483 kts | 356° |
| 2026-05-06 12:12 | 42.19297 | -73.45666 | 34816 ft | 485 kts | 357° |
| 2026-05-06 12:12 | 42.26017 | -73.44733 | 34841 ft | 486 kts | 357° |
| 2026-05-06 12:13 | 42.32742 | -73.43795 | 34841 ft | 486 kts | 357° |
| 2026-05-06 12:13 | 42.39462 | -73.42855 | 34856 ft | 485 kts | 357° |
| 2026-05-06 12:14 | 42.46165 | -73.41917 | 34865 ft | 485 kts | 357° |
| 2026-05-06 12:14 | 42.52865 | -73.40978 | 34848 ft | 483 kts | 357° |
| 2026-05-06 12:15 | 42.59542 | -73.40040 | 34844 ft | 482 kts | 357° |
| 2026-05-06 12:15 | 42.66199 | -73.39101 | 34852 ft | 480 kts | 357° |
| 2026-05-06 12:16 | 42.72833 | -73.38166 | 34843 ft | 479 kts | 357° |
| 2026-05-06 12:16 | 42.79465 | -73.37233 | 34846 ft | 479 kts | 357° |
| 2026-05-06 12:17 | 42.86116 | -73.36292 | 34847 ft | 483 kts | 357° |
| 2026-05-06 12:17 | 42.92810 | -73.35340 | 34860 ft | 485 kts | 357° |
| 2026-05-06 12:18 | 42.99484 | -73.34499 | 34849 ft | 481 kts | 353° |
| 2026-05-06 12:18 | 43.06096 | -73.34863 | 34853 ft | 475 kts | 346° |
| 2026-05-06 12:19 | 43.12694 | -73.35540 | 34826 ft | 476 kts | 346° |
| 2026-05-06 12:19 | 43.19301 | -73.36178 | 34847 ft | 476 kts | 347° |
| 2026-05-06 12:20 | 43.25921 | -73.36778 | 34864 ft | 477 kts | 346° |
| 2026-05-06 12:20 | 43.32504 | -73.37361 | 34801 ft | 467 kts | 346° |
| 2026-05-06 12:21 | 43.35738 | -73.37646 | 34318 ft | 465 kts | 346° |
| 2026-05-06 12:21 | 43.38952 | -73.37934 | 33899 ft | 461 kts | 346° |
| 2026-05-06 12:21 | 43.42138 | -73.38222 | 33430 ft | 458 kts | 346° |
| 2026-05-06 12:21 | 43.45304 | -73.38509 | 32949 ft | 454 kts | 346° |
| 2026-05-06 12:22 | 43.48441 | -73.38793 | 32510 ft | 449 kts | 346° |
| 2026-05-06 12:22 | 43.51546 | -73.39075 | 32079 ft | 445 kts | 346° |
| 2026-05-06 12:22 | 43.54621 | -73.39355 | 31666 ft | 441 kts | 346° |
| 2026-05-06 12:22 | 43.57662 | -73.39631 | 31255 ft | 436 kts | 346° |
| 2026-05-06 12:23 | 43.60675 | -73.39906 | 30843 ft | 432 kts | 346° |
| 2026-05-06 12:23 | 43.63659 | -73.40179 | 30445 ft | 428 kts | 346° |
| 2026-05-06 12:23 | 43.66616 | -73.40450 | 30054 ft | 424 kts | 346° |
| 2026-05-06 12:23 | 43.69551 | -73.40718 | 29611 ft | 421 kts | 346° |
| 2026-05-06 12:24 | 43.72464 | -73.41001 | 29171 ft | 417 kts | 346° |
| 2026-05-06 12:24 | 43.75342 | -73.41315 | 28760 ft | 412 kts | 345° |
| 2026-05-06 12:24 | 43.78188 | -73.41643 | 28388 ft | 408 kts | 345° |
| 2026-05-06 12:24 | 43.81009 | -73.41972 | 27978 ft | 405 kts | 345° |
| 2026-05-06 12:25 | 43.83811 | -73.42299 | 27599 ft | 404 kts | 345° |
| 2026-05-06 12:25 | 43.86619 | -73.42629 | 27200 ft | 407 kts | 345° |
| 2026-05-06 12:25 | 43.89473 | -73.42969 | 26821 ft | 416 kts | 346° |
| 2026-05-06 12:25 | 43.92384 | -73.43313 | 26412 ft | 422 kts | 346° |
| 2026-05-06 12:26 | 43.95303 | -73.43647 | 26006 ft | 420 kts | 346° |
| 2026-05-06 12:26 | 43.98202 | -73.43972 | 25613 ft | 417 kts | 346° |
| 2026-05-06 12:26 | 44.01085 | -73.44295 | 25204 ft | 414 kts | 346° |
| 2026-05-06 12:26 | 44.03946 | -73.44618 | 24807 ft | 412 kts | 346° |
| 2026-05-06 12:27 | 44.06792 | -73.44942 | 24413 ft | 409 kts | 347° |
| 2026-05-06 12:27 | 44.09620 | -73.45266 | 24022 ft | 407 kts | 347° |
| 2026-05-06 12:27 | 44.12438 | -73.45589 | 23631 ft | 405 kts | 347° |
| 2026-05-06 12:27 | 44.15237 | -73.45912 | 23228 ft | 402 kts | 347° |
| 2026-05-06 12:28 | 44.18017 | -73.46232 | 22812 ft | 400 kts | 347° |
| 2026-05-06 12:28 | 44.20779 | -73.46549 | 22403 ft | 397 kts | 347° |
| 2026-05-06 12:28 | 44.23524 | -73.46865 | 22004 ft | 394 kts | 347° |
| 2026-05-06 12:28 | 44.26251 | -73.47179 | 21619 ft | 392 kts | 347° |
| 2026-05-06 12:29 | 44.28962 | -73.47492 | 21227 ft | 390 kts | 347° |
| 2026-05-06 12:29 | 44.31654 | -73.47805 | 20854 ft | 387 kts | 347° |
| 2026-05-06 12:29 | 44.34333 | -73.48115 | 20497 ft | 385 kts | 347° |
| 2026-05-06 12:29 | 44.36999 | -73.48425 | 20121 ft | 384 kts | 347° |
| 2026-05-06 12:30 | 44.39653 | -73.48733 | 19761 ft | 382 kts | 347° |
| 2026-05-06 12:30 | 44.42300 | -73.49040 | 19387 ft | 381 kts | 347° |
| 2026-05-06 12:30 | 44.44940 | -73.49347 | 19050 ft | 379 kts | 347° |
| 2026-05-06 12:30 | 44.47564 | -73.49653 | 18701 ft | 378 kts | 347° |
| 2026-05-06 12:31 | 44.50182 | -73.49959 | 18338 ft | 377 kts | 347° |
| 2026-05-06 12:31 | 44.52791 | -73.50264 | 17935 ft | 376 kts | 347° |
| 2026-05-06 12:31 | 44.55359 | -73.50563 | 17534 ft | 374 kts | 348° |
| 2026-05-06 12:31 | 44.57947 | -73.50864 | 17154 ft | 372 kts | 348° |
| 2026-05-06 12:32 | 44.60520 | -73.51165 | 16777 ft | 370 kts | 348° |
| 2026-05-06 12:32 | 44.63115 | -73.51468 | 16391 ft | 369 kts | 348° |
| 2026-05-06 12:32 | 44.65630 | -73.51763 | 16027 ft | 367 kts | 348° |
| 2026-05-06 12:32 | 44.68161 | -73.52059 | 15656 ft | 364 kts | 348° |
| 2026-05-06 12:33 | 44.70685 | -73.52354 | 15313 ft | 363 kts | 348° |
| 2026-05-06 12:33 | 44.73189 | -73.52649 | 14940 ft | 361 kts | 348° |
| 2026-05-06 12:33 | 44.75687 | -73.52944 | 14569 ft | 359 kts | 348° |
| 2026-05-06 12:33 | 44.78170 | -73.53238 | 14218 ft | 357 kts | 348° |
| 2026-05-06 12:34 | 44.80644 | -73.53531 | 13850 ft | 356 kts | 348° |
| 2026-05-06 12:34 | 44.83106 | -73.53823 | 13457 ft | 354 kts | 348° |
| 2026-05-06 12:34 | 44.85557 | -73.54113 | 13068 ft | 352 kts | 348° |
| 2026-05-06 12:34 | 44.87994 | -73.54391 | 12696 ft | 350 kts | 349° |
| 2026-05-06 12:35 | 44.90410 | -73.54654 | 12349 ft | 347 kts | 349° |
| 2026-05-06 12:35 | 44.92807 | -73.54914 | 11995 ft | 344 kts | 349° |
| 2026-05-06 12:35 | 44.95188 | -73.55174 | 11643 ft | 342 kts | 349° |
| 2026-05-06 12:35 | 44.97547 | -73.55432 | 11316 ft | 339 kts | 349° |
| 2026-05-06 12:36 | 44.99887 | -73.55689 | 10973 ft | 336 kts | 349° |
| 2026-05-06 12:36 | 45.02213 | -73.55946 | 10635 ft | 334 kts | 350° |
| 2026-05-06 12:36 | 45.04516 | -73.56200 | 10378 ft | 328 kts | 350° |
| 2026-05-06 12:36 | 45.06762 | -73.56445 | 10236 ft | 319 kts | 349° |
| 2026-05-06 12:37 | 45.08941 | -73.56683 | 10109 ft | 309 kts | 349° |
| 2026-05-06 12:37 | 45.11054 | -73.56915 | 10041 ft | 302 kts | 349° |
| 2026-05-06 12:37 | 45.13160 | -73.57151 | 9777 ft | 307 kts | 349° |
| 2026-05-06 12:37 | 45.15316 | -73.57394 | 9356 ft | 312 kts | 350° |
| 2026-05-06 12:38 | 45.17469 | -73.57632 | 9029 ft | 309 kts | 350° |
| 2026-05-06 12:38 | 45.19600 | -73.57865 | 8724 ft | 306 kts | 349° |
| 2026-05-06 12:38 | 45.21707 | -73.58098 | 8405 ft | 302 kts | 349° |
| 2026-05-06 12:38 | 45.23786 | -73.58327 | 8167 ft | 297 kts | 349° |
| 2026-05-06 12:39 | 45.25820 | -73.58550 | 7927 ft | 291 kts | 349° |
| 2026-05-06 12:39 | 45.27811 | -73.58771 | 7777 ft | 290 kts | 349° |
| 2026-05-06 12:39 | 45.29861 | -73.59004 | 7799 ft | 302 kts | 349° |
| 2026-05-06 12:39 | 45.31970 | -73.59240 | 7691 ft | 307 kts | 350° |
| 2026-05-06 12:40 | 45.34113 | -73.59475 | 7366 ft | 309 kts | 350° |
| 2026-05-06 12:40 | 45.36227 | -73.59703 | 7189 ft | 300 kts | 350° |
| 2026-05-06 12:40 | 45.38284 | -73.59884 | 6956 ft | 294 kts | 356° |
| 2026-05-06 12:40 | 45.40276 | -73.59145 | 6824 ft | 301 kts | 25° |
| 2026-05-06 12:41 | 45.42014 | -73.57500 | 6650 ft | 301 kts | 32° |
| 2026-05-06 12:41 | 45.43730 | -73.55809 | 6528 ft | 296 kts | 31° |
| 2026-05-06 12:41 | 45.45410 | -73.54180 | 6132 ft | 290 kts | 31° |
| 2026-05-06 12:41 | 45.47067 | -73.52579 | 5631 ft | 285 kts | 31° |
| 2026-05-06 12:42 | 45.48689 | -73.51015 | 5228 ft | 278 kts | 31° |
| 2026-05-06 12:42 | 45.50278 | -73.49482 | 4816 ft | 275 kts | 31° |
| 2026-05-06 12:42 | 45.51861 | -73.47955 | 4767 ft | 273 kts | 31° |
| 2026-05-06 12:42 | 45.53426 | -73.46444 | 4726 ft | 270 kts | 31° |
| 2026-05-06 12:43 | 45.54979 | -73.44944 | 4669 ft | 269 kts | 31° |
| 2026-05-06 12:43 | 45.56522 | -73.43445 | 4570 ft | 267 kts | 33° |
| 2026-05-06 12:43 | 45.58018 | -73.41898 | 4327 ft | 264 kts | 25° |
| 2026-05-06 12:43 | 45.59774 | -73.41250 | 4063 ft | 261 kts | 355° |
| 2026-05-06 12:44 | 45.61479 | -73.41915 | 3978 ft | 253 kts | 326° |
| 2026-05-06 12:44 | 45.62686 | -73.43654 | 3944 ft | 246 kts | 297° |
| 2026-05-06 12:44 | 45.63170 | -73.45897 | 3813 ft | 230 kts | 278° |
| 2026-05-06 12:44 | 45.63353 | -73.48112 | 3617 ft | 219 kts | 276° |
| 2026-05-06 12:45 | 45.63486 | -73.50220 | 3531 ft | 210 kts | 275° |
| 2026-05-06 12:45 | 45.63518 | -73.52268 | 3471 ft | 203 kts | 259° |
| 2026-05-06 12:45 | 45.61977 | -73.55426 | 3402 ft | 191 kts | 231° |
| 2026-05-06 12:46 | 45.61069 | -73.56786 | 3347 ft | 187 kts | 228° |
| 2026-05-06 12:46 | 45.60148 | -73.58045 | 3302 ft | 184 kts | 226° |
| 2026-05-06 12:46 | 45.59210 | -73.59292 | 3133 ft | 186 kts | 226° |
| 2026-05-06 12:46 | 45.58262 | -73.60541 | 2883 ft | 184 kts | 225° |
| 2026-05-06 12:47 | 45.57326 | -73.61773 | 2618 ft | 182 kts | 225° |
| 2026-05-06 12:47 | 45.56405 | -73.62983 | 2367 ft | 178 kts | 225° |
| 2026-05-06 12:47 | 45.55506 | -73.64164 | 2136 ft | 173 kts | 225° |
| 2026-05-06 12:47 | 45.54637 | -73.65308 | 1885 ft | 166 kts | 224° |
| 2026-05-06 12:48 | 45.53814 | -73.66389 | 1701 ft | 157 kts | 224° |
| 2026-05-06 12:48 | 45.53028 | -73.67424 | 1480 ft | 149 kts | 224° |
| 2026-05-06 12:48 | 45.52288 | -73.68394 | 1265 ft | 140 kts | 224° |
| 2026-05-06 12:48 | 45.51591 | -73.69309 | 1094 ft | 134 kts | 223° |
| 2026-05-06 12:49 | 45.50894 | -73.70226 | 855 ft | 138 kts | 223° |
| 2026-05-06 12:49 | 45.50183 | -73.71159 | 678 ft | 140 kts | 222° |
| 2026-05-06 12:49 | 45.49464 | -73.72095 | 486 ft | 140 kts | 223° |
| 2026-05-06 12:49 | 45.48755 | -73.73035 | 293 ft | 139 kts | 223° |
| 2026-05-06 12:50 | 45.48288 | -73.73648 | 160 ft | 139 kts | 223° |
| 2026-05-06 12:50 | 45.47610 | -73.74535 | 112 ft | 122 kts | 223° |
| 2026-05-06 12:50 | 45.47114 | -73.75187 | 112 ft | 80 kts | 222° |
| 2026-05-06 12:50 | 45.46827 | -73.75547 | 111 ft | 41 kts | 211° |
| 2026-05-06 12:51 | 45.46632 | -73.75627 | 110 ft | 28 kts | 192° |
| 2026-05-06 12:51 | 45.46447 | -73.75684 | 109 ft | 27 kts | 192° |
| 2026-05-06 12:51 | 45.46337 | -73.75719 | 108 ft | 11 kts | 193° |
| 2026-05-06 12:51 | 45.46296 | -73.75801 | 109 ft | 11 kts | 258° |
| 2026-05-06 12:52 | 45.46287 | -73.75953 | 109 ft | 22 kts | 267° |
| 2026-05-06 12:52 | 45.46258 | -73.76177 | 108 ft | 21 kts | 221° |
| 2026-05-06 12:52 | 45.46106 | -73.76126 | 107 ft | 23 kts | 147° |
| 2026-05-06 12:52 | 45.45967 | -73.76061 | 109 ft | 15 kts | 176° |
| 2026-05-06 12:53 | 45.45868 | -73.76048 | 108 ft | 14 kts | 172° |
| 2026-05-06 12:53 | 45.45773 | -73.76014 | 109 ft | 15 kts | 147° |
| 2026-05-06 12:53 | 45.45704 | -73.75905 | 108 ft | 15 kts | 128° |
| 2026-05-06 12:53 | 45.45635 | -73.75804 | 107 ft | 14 kts | 151° |
| 2026-05-06 12:54 | 45.45541 | -73.75770 | 109 ft | 14 kts | 168° |
| 2026-05-06 12:54 | 45.45445 | -73.75743 | 109 ft | 14 kts | 169° |
| 2026-05-06 12:54 | 45.45371 | -73.75710 | 109 ft | 10 kts | 130° |
| 2026-05-06 12:54 | 45.45369 | -73.75616 | 109 ft | 10 kts | 81° |
| 2026-05-06 12:55 | 45.45364 | -73.75554 | 108 ft | 4 kts | 128° |
| 2026-05-06 12:55 | 45.45331 | -73.75532 | 109 ft | 6 kts | 163° |
| 2026-05-06 12:55 | 45.45316 | -73.75526 | 109 ft | 0 kts | 165° |